Terminal Aerodrome Forecast
Issued by NWS Pocatello, ID

Home | Current Version | Previous Version | Text Only | Print | Product List | Glossary On
Versions: 1 2 3 4 5 6 7 8 9 10 11 12
000
FTUS45 KPIH 302320
TAFBYI
TAF
KBYI 302320Z 3100/3124 13008KT P6SM FEW130 BKN250
     FM310600 14008KT P6SM BKN200 WS020/17030KT
     FM311200 18007KT P6SM BKN180
     FM311900 27010KT P6SM SCT130 BKN180=

USA.gov is the U.S. government's official web portal to all federal, state and local government web resources and services.